createdAt,value
2022-09-30T00:01:15.688Z,19.70
2022-09-30T00:03:49.910Z,19.90
2022-09-30T00:06:31.343Z,19.90
2022-09-30T00:13:44.947Z,21.90
2022-09-30T00:16:23.643Z,20.20
2022-09-30T00:19:16.344Z,20.60
2022-09-30T00:21:48.942Z,18.20
2022-09-30T00:24:25.593Z,19.90
2022-09-30T00:27:25.207Z,22.40
2022-09-30T00:29:55.698Z,22.70
2022-09-30T00:32:37.869Z,22.90
2022-09-30T00:35:09.055Z,22.30
2022-09-30T00:37:37.981Z,19.00
2022-09-30T00:41:06.473Z,19.80
2022-09-30T00:44:19.753Z,21.80
2022-09-30T00:47:02.859Z,20.70
2022-09-30T00:50:11.460Z,21.10
2022-09-30T00:53:12.633Z,17.70
2022-09-30T00:56:24.725Z,19.80
2022-09-30T00:59:00.445Z,23.50
2022-09-30T01:01:33.264Z,22.80
2022-09-30T01:04:08.562Z,24.40
2022-09-30T01:06:38.640Z,20.00
2022-09-30T01:09:10.523Z,19.10
2022-09-30T01:11:39.952Z,21.70
2022-09-30T01:14:21.621Z,20.60
2022-09-30T01:17:09.319Z,20.20
2022-09-30T01:19:38.625Z,19.80
2022-09-30T01:22:27.914Z,21.60
2022-09-30T01:25:27.264Z,21.60
2022-09-30T01:28:40.321Z,22.00
2022-09-30T01:31:46.605Z,18.20
2022-09-30T01:34:45.407Z,15.40
2022-09-30T01:37:46.047Z,13.70
2022-09-30T01:40:33.480Z,17.40
2022-09-30T01:43:16.969Z,13.40
2022-09-30T01:45:59.887Z,13.60
2022-09-30T01:48:47.348Z,15.60
2022-09-30T01:51:32.892Z,15.00
2022-09-30T01:54:13.228Z,13.80
2022-09-30T01:57:43.252Z,15.50
2022-09-30T02:06:58.121Z,13.60
2022-09-30T02:09:37.373Z,14.90
2022-09-30T02:12:12.992Z,14.70
2022-09-30T02:14:47.108Z,18.30
2022-09-30T02:17:33.832Z,16.70
2022-09-30T02:20:15.975Z,15.50
2022-09-30T02:22:52.585Z,18.90
2022-09-30T02:25:30.128Z,17.00
2022-09-30T02:28:04.994Z,14.30
2022-09-30T02:30:37.018Z,15.70
2022-09-30T02:33:34.914Z,15.70
2022-09-30T02:36:31.290Z,16.40
2022-09-30T02:39:17.184Z,16.30
2022-09-30T02:41:59.876Z,14.90
2022-09-30T02:45:13.498Z,14.90
2022-09-30T03:04:31.857Z,14.70
2022-09-30T03:07:03.148Z,13.20
2022-09-30T03:09:37.324Z,15.00
2022-09-30T03:16:45.330Z,19.30
2022-09-30T03:19:59.058Z,17.00
2022-09-30T03:23:15.440Z,14.40
2022-09-30T03:30:29.513Z,12.70
2022-09-30T05:23:20.946Z,21.00
2022-09-30T05:25:52.356Z,21.80
2022-09-30T05:28:22.868Z,21.60
2022-09-30T05:31:00.748Z,35.00
2022-09-30T05:33:30.899Z,123.80
2022-09-30T05:36:11.790Z,175.70
2022-09-30T05:38:42.931Z,122.50
2022-09-30T05:41:15.658Z,81.90
2022-09-30T05:43:47.612Z,37.60
2022-09-30T05:46:21.779Z,24.40
2022-09-30T05:48:53.919Z,18.70
2022-09-30T05:51:24.293Z,18.10
2022-09-30T05:53:52.006Z,16.40
2022-09-30T05:56:22.116Z,13.70
2022-09-30T05:58:51.326Z,17.60
2022-09-30T06:01:20.573Z,18.50
2022-09-30T06:03:51.696Z,22.50
2022-09-30T06:06:22.684Z,22.30
2022-09-30T06:08:51.739Z,15.40
2022-09-30T06:11:23.173Z,18.40
2022-09-30T06:13:52.118Z,16.30
2022-09-30T06:16:23.699Z,16.90
2022-09-30T06:19:16.984Z,16.60
2022-09-30T06:21:45.356Z,20.30
2022-09-30T06:24:18.768Z,21.90
2022-09-30T06:26:51.593Z,17.00
2022-09-30T06:29:22.160Z,17.50
2022-09-30T06:31:51.914Z,18.80
2022-09-30T06:34:22.135Z,18.40
2022-09-30T06:36:53.373Z,20.20
2022-09-30T06:39:26.754Z,20.40
2022-09-30T06:42:01.232Z,15.80
2022-09-30T06:44:33.933Z,16.70
2022-09-30T06:47:04.244Z,16.30
2022-09-30T06:49:47.147Z,22.90
2022-09-30T06:52:17.111Z,24.20
2022-09-30T06:54:49.557Z,28.70
2022-09-30T06:57:29.697Z,23.10
2022-09-30T07:00:20.385Z,26.10
2022-09-30T07:02:52.895Z,20.30
2022-09-30T07:05:42.612Z,20.10
2022-09-30T07:08:12.261Z,17.00
2022-09-30T07:10:46.338Z,15.90
2022-09-30T07:13:17.520Z,14.80
2022-09-30T07:15:46.322Z,15.10
2022-09-30T07:18:16.019Z,15.30
2022-09-30T07:20:53.452Z,17.10
2022-09-30T07:23:29.646Z,14.70
2022-09-30T07:26:04.435Z,14.70
2022-09-30T07:28:35.970Z,15.80
2022-09-30T07:31:31.456Z,15.80
2022-09-30T07:34:02.812Z,17.60
2022-09-30T07:36:33.783Z,18.90
2022-09-30T07:39:11.067Z,16.90
2022-09-30T07:41:41.024Z,15.80
2022-09-30T07:44:14.132Z,16.70
2022-09-30T07:46:45.514Z,15.70
2022-09-30T07:49:24.272Z,16.40
2022-09-30T07:51:55.635Z,18.80
2022-09-30T07:54:27.647Z,19.00
2022-09-30T07:57:09.619Z,17.80
2022-09-30T07:59:42.603Z,19.90
2022-09-30T08:02:16.601Z,16.00
2022-09-30T08:04:46.508Z,21.80
2022-09-30T08:07:19.546Z,15.50
2022-09-30T08:09:48.054Z,14.30
2022-09-30T08:12:17.794Z,34.00
2022-09-30T08:14:48.274Z,13.00
2022-09-30T08:17:15.963Z,14.60
2022-09-30T08:19:44.561Z,14.10
2022-09-30T08:22:16.312Z,12.50
2022-09-30T08:24:44.744Z,11.30
2022-09-30T08:27:14.882Z,10.80
2022-09-30T08:29:54.813Z,12.10
2022-09-30T08:32:28.298Z,14.30
2022-09-30T08:34:58.513Z,10.80
2022-09-30T08:37:26.390Z,10.30
2022-09-30T08:39:55.945Z,11.00
2022-09-30T08:42:57.544Z,10.80
2022-09-30T08:45:34.337Z,11.70
2022-09-30T08:51:20.771Z,12.20
2022-09-30T08:53:49.737Z,12.60
2022-09-30T08:56:30.104Z,13.10
2022-09-30T08:59:24.534Z,13.60
2022-09-30T09:05:54.125Z,26.00
2022-09-30T09:08:38.519Z,18.00
2022-09-30T09:11:30.389Z,14.00
2022-09-30T09:14:06.493Z,12.40
2022-09-30T09:16:50.934Z,11.70
2022-09-30T09:23:33.282Z,20.00
2022-09-30T09:26:03.032Z,16.80
2022-09-30T09:28:59.004Z,13.20
2022-09-30T09:31:28.278Z,56.70
2022-09-30T09:34:09.800Z,18.20
2022-09-30T09:36:43.310Z,12.50
2022-09-30T09:39:24.532Z,13.50
2022-09-30T09:42:19.403Z,11.80
2022-09-30T09:45:23.314Z,17.10
2022-09-30T09:47:53.012Z,13.50
2022-09-30T09:50:48.915Z,12.30
2022-09-30T09:53:46.799Z,17.90
2022-09-30T09:56:22.905Z,15.50
2022-09-30T09:59:15.283Z,11.70
2022-09-30T10:01:50.199Z,11.80
2022-09-30T10:04:25.682Z,20.60
2022-09-30T10:07:12.694Z,43.80
2022-09-30T10:09:42.902Z,13.70
2022-09-30T10:12:14.269Z,12.00
2022-09-30T10:15:13.272Z,13.90
2022-09-30T10:17:51.964Z,12.80
2022-09-30T10:20:29.549Z,12.60
2022-09-30T10:23:03.387Z,12.70
2022-09-30T10:28:04.414Z,12.20
2022-09-30T10:30:41.737Z,13.60
2022-09-30T10:33:17.885Z,13.60
2022-09-30T10:36:04.892Z,14.00
2022-09-30T10:38:34.552Z,13.60
2022-09-30T10:41:04.724Z,11.70
2022-09-30T10:43:45.222Z,12.30
2022-09-30T10:46:27.218Z,14.00
2022-09-30T10:48:59.302Z,12.80
2022-09-30T10:51:33.613Z,13.30
2022-09-30T10:54:02.397Z,13.80
2022-09-30T10:56:37.647Z,12.40
2022-09-30T10:59:16.239Z,11.70
2022-09-30T11:01:57.345Z,11.40
2022-09-30T11:04:39.358Z,10.50
2022-09-30T11:07:26.971Z,10.00
2022-09-30T11:09:58.638Z,11.90
2022-09-30T11:12:44.913Z,14.10
2022-09-30T11:15:30.781Z,14.60
2022-09-30T11:18:29.230Z,15.30
2022-09-30T11:21:03.888Z,15.30
2022-09-30T11:23:56.882Z,23.30
2022-09-30T11:26:44.897Z,24.00
2022-09-30T11:29:35.923Z,16.20
2022-09-30T11:32:27.907Z,15.10
2022-09-30T11:35:27.741Z,14.30
2022-09-30T11:38:08.168Z,16.10
2022-09-30T11:41:35.513Z,25.20
2022-09-30T11:44:26.076Z,15.10
2022-09-30T11:46:57.024Z,14.40
2022-09-30T11:49:52.045Z,13.30
2022-09-30T11:52:35.425Z,13.90
2022-09-30T11:55:31.958Z,20.30
2022-09-30T11:58:41.058Z,14.20
2022-09-30T12:01:33.546Z,37.50
2022-09-30T12:04:25.734Z,14.80
2022-09-30T12:07:19.983Z,16.40
2022-09-30T12:10:04.298Z,18.40
2022-09-30T12:12:33.267Z,17.90
2022-09-30T12:15:05.534Z,15.80
2022-09-30T12:17:42.458Z,16.90
2022-09-30T12:20:21.877Z,18.60
2022-09-30T12:22:53.785Z,19.10
2022-09-30T12:25:32.455Z,16.30
2022-09-30T12:28:32.175Z,25.60
2022-09-30T12:31:26.663Z,18.20
2022-09-30T12:34:13.697Z,16.20
2022-09-30T12:37:01.861Z,16.50
2022-09-30T12:39:41.829Z,13.90
2022-09-30T12:42:33.116Z,14.80
2022-09-30T12:45:30.012Z,29.30
2022-09-30T12:48:22.953Z,14.20
2022-09-30T12:50:58.815Z,23.90
2022-09-30T12:53:32.306Z,13.00
2022-09-30T12:56:23.135Z,13.40
2022-09-30T12:59:20.818Z,52.50
2022-09-30T13:02:34.522Z,11.40
2022-09-30T13:05:42.577Z,14.60
2022-09-30T13:08:57.753Z,14.00
2022-09-30T13:11:56.551Z,20.50
2022-09-30T13:15:12.342Z,39.50
2022-09-30T13:17:41.505Z,25.50
2022-09-30T13:21:03.268Z,15.90
2022-09-30T13:23:39.328Z,36.70
2022-09-30T13:26:38.892Z,32.50
2022-09-30T13:29:08.572Z,19.80
2022-09-30T13:31:47.102Z,22.70
2022-09-30T13:34:44.009Z,31.70
2022-09-30T13:37:40.327Z,22.40
2022-09-30T13:43:42.547Z,16.70
2022-09-30T13:46:37.378Z,24.30
2022-09-30T13:49:38.996Z,17.80
2022-09-30T13:53:02.667Z,103.70
2022-09-30T13:55:55.250Z,33.40
2022-09-30T13:59:03.091Z,20.50
2022-09-30T14:01:53.987Z,28.50
2022-09-30T14:04:48.727Z,56.60
2022-09-30T14:08:10.594Z,35.50
2022-09-30T14:23:20.035Z,15.40
2022-09-30T14:26:20.505Z,20.40
2022-09-30T14:28:58.394Z,16.70
2022-09-30T14:31:30.099Z,12.90
2022-09-30T14:34:18.996Z,13.00
2022-09-30T14:36:51.136Z,36.40
2022-09-30T14:39:30.835Z,43.60
2022-09-30T14:42:05.040Z,55.30
2022-09-30T14:45:17.268Z,14.60
2022-09-30T14:47:59.959Z,11.80
2022-09-30T14:50:37.955Z,12.40
2022-09-30T14:53:31.766Z,12.00
2022-09-30T14:56:44.796Z,13.40
2022-09-30T14:59:45.181Z,12.60
2022-09-30T15:02:26.661Z,12.40
2022-09-30T15:05:01.377Z,12.80
2022-09-30T15:07:35.086Z,12.40
2022-09-30T15:10:05.621Z,11.80
2022-09-30T15:12:50.012Z,16.60
2022-09-30T15:15:37.856Z,12.90
2022-09-30T15:18:42.096Z,14.90
2022-09-30T15:21:16.161Z,31.10
2022-09-30T15:23:53.609Z,24.60
2022-09-30T15:26:27.078Z,64.60
2022-09-30T15:28:55.209Z,24.80
2022-09-30T15:31:30.054Z,19.40
2022-09-30T15:34:20.492Z,18.40
2022-09-30T15:39:49.983Z,16.70
2022-09-30T15:42:35.045Z,55.60
2022-09-30T15:45:30.885Z,26.20
2022-09-30T15:48:08.152Z,12.10
2022-09-30T15:50:48.831Z,22.50
2022-09-30T15:53:25.222Z,38.10
2022-09-30T15:55:57.664Z,32.50
2022-09-30T15:58:34.098Z,34.90
2022-09-30T16:01:25.331Z,32.30
2022-09-30T16:03:59.824Z,100.10
2022-09-30T16:06:43.062Z,124.80
2022-09-30T16:09:36.225Z,94.50
2022-09-30T16:12:10.500Z,44.10
2022-09-30T16:14:51.185Z,112.00
2022-09-30T16:17:27.631Z,29.90
2022-09-30T16:20:21.334Z,18.70
2022-09-30T16:22:55.411Z,22.00
2022-09-30T16:25:27.854Z,31.20
2022-09-30T16:28:02.547Z,36.50
2022-09-30T16:30:34.574Z,33.20
2022-09-30T16:33:06.949Z,34.60
2022-09-30T16:35:35.572Z,29.40
2022-09-30T16:38:07.512Z,25.30
2022-09-30T16:40:37.808Z,47.30
2022-09-30T16:43:12.127Z,39.00
2022-09-30T16:45:40.723Z,31.70
2022-09-30T16:48:18.677Z,18.50
2022-09-30T16:51:04.852Z,17.90
2022-09-30T16:53:33.519Z,21.00
2022-09-30T16:56:05.633Z,19.20
2022-09-30T16:58:35.245Z,19.30
2022-09-30T17:01:06.355Z,29.40
2022-09-30T17:03:36.514Z,24.90
2022-09-30T17:06:07.869Z,17.50
2022-09-30T17:08:35.960Z,22.20
2022-09-30T17:11:03.507Z,16.40
2022-09-30T17:13:33.645Z,14.60
2022-09-30T17:16:04.866Z,11.80
2022-09-30T17:19:23.096Z,11.30
2022-09-30T17:21:54.174Z,10.60
2022-09-30T17:25:06.064Z,13.40
2022-09-30T17:27:34.396Z,16.10
2022-09-30T17:30:07.403Z,17.10
2022-09-30T17:32:39.920Z,23.30
2022-09-30T17:35:13.692Z,23.00
2022-09-30T17:37:49.176Z,27.20
2022-09-30T17:40:36.446Z,15.20
2022-09-30T17:43:08.422Z,37.10
2022-09-30T17:45:43.667Z,39.10
2022-09-30T17:50:44.839Z,18.80
2022-09-30T17:53:35.430Z,16.90
2022-09-30T17:56:12.601Z,35.90
2022-09-30T17:58:42.411Z,20.20
2022-09-30T18:01:13.488Z,32.20
2022-09-30T18:03:43.001Z,30.00
2022-09-30T18:06:17.909Z,45.70
2022-09-30T18:08:51.546Z,43.30
2022-09-30T18:11:27.394Z,42.00
2022-09-30T18:14:27.787Z,82.10
2022-09-30T18:16:58.635Z,48.30
2022-09-30T18:20:26.678Z,36.40
2022-09-30T18:22:58.137Z,22.00
2022-09-30T18:25:26.142Z,20.70
2022-09-30T18:28:23.074Z,43.10
2022-09-30T18:33:43.323Z,24.30
2022-09-30T18:36:33.818Z,21.30
2022-09-30T18:39:05.001Z,33.80
2022-09-30T18:41:43.125Z,32.80
2022-09-30T18:46:58.205Z,29.50
2022-09-30T18:49:31.801Z,29.90
2022-09-30T18:52:11.507Z,32.20
2022-09-30T18:55:01.320Z,28.00
2022-09-30T18:57:32.355Z,33.60
2022-09-30T19:00:01.836Z,30.70
2022-09-30T19:02:32.568Z,31.80
2022-09-30T19:05:00.775Z,32.00
2022-09-30T19:07:31.043Z,29.80
2022-09-30T19:10:02.791Z,56.10
2022-09-30T19:12:36.152Z,72.10
2022-09-30T19:15:08.364Z,55.50
2022-09-30T19:17:37.947Z,30.90
2022-09-30T19:20:09.010Z,22.30
2022-09-30T19:22:39.958Z,18.20
2022-09-30T19:25:21.265Z,18.50
2022-09-30T19:27:56.432Z,19.40
2022-09-30T19:32:59.846Z,33.30
2022-09-30T19:35:40.081Z,84.00
2022-09-30T19:38:37.149Z,23.40
2022-09-30T19:41:10.508Z,36.80
2022-09-30T19:43:44.029Z,24.00
2022-09-30T19:46:13.441Z,23.20
2022-09-30T19:48:46.999Z,21.40
2022-09-30T19:51:20.068Z,21.50
2022-09-30T19:54:05.511Z,23.70
2022-09-30T19:56:41.108Z,22.10
2022-09-30T19:59:11.383Z,22.40
2022-09-30T20:01:44.595Z,17.60
2022-09-30T20:04:18.595Z,17.70
2022-09-30T20:06:48.481Z,18.60
2022-09-30T20:09:20.077Z,23.00
2022-09-30T20:11:50.351Z,17.20
2022-09-30T20:14:38.401Z,19.40
2022-09-30T20:17:14.066Z,17.90
2022-09-30T20:20:05.698Z,16.70
2022-09-30T20:22:53.678Z,17.50
2022-09-30T20:25:33.132Z,25.60
2022-09-30T20:28:07.458Z,20.70
2022-09-30T20:30:48.996Z,19.80
2022-09-30T20:33:25.347Z,20.80
2022-09-30T20:36:00.055Z,19.00
2022-09-30T20:38:33.446Z,27.70
2022-09-30T20:41:05.570Z,33.00
2022-09-30T20:44:17.089Z,35.30
2022-09-30T20:47:06.996Z,29.40
2022-09-30T20:49:37.327Z,31.50
2022-09-30T20:52:08.867Z,36.20
2022-09-30T20:54:39.891Z,24.60
2022-09-30T20:57:09.221Z,22.50
2022-09-30T20:59:37.767Z,23.20
2022-09-30T21:02:08.873Z,21.70
2022-09-30T21:04:37.814Z,23.50
2022-09-30T21:07:07.199Z,29.80
2022-09-30T21:09:38.377Z,24.50
2022-09-30T21:12:10.836Z,30.90
2022-09-30T21:14:43.141Z,27.90
2022-09-30T21:17:15.522Z,24.60
2022-09-30T21:19:44.391Z,24.00
2022-09-30T21:22:16.921Z,19.00
2022-09-30T21:24:45.750Z,20.50
2022-09-30T21:27:16.922Z,20.20
2022-09-30T21:29:47.727Z,19.80
2022-09-30T21:32:19.516Z,23.20
2022-09-30T21:34:49.389Z,23.00
2022-09-30T21:37:23.233Z,23.70
2022-09-30T21:39:50.877Z,23.30
2022-09-30T21:42:21.257Z,18.10
2022-09-30T21:44:50.065Z,24.70
2022-09-30T21:47:22.465Z,31.10
2022-09-30T21:49:52.982Z,21.40
2022-09-30T21:52:26.140Z,23.70
2022-09-30T21:54:59.297Z,24.50
2022-09-30T21:57:29.552Z,23.50
2022-09-30T22:00:02.296Z,23.30
2022-09-30T22:02:31.774Z,26.70
2022-09-30T22:05:42.686Z,27.20
2022-09-30T22:08:50.597Z,26.20
2022-09-30T22:11:55.733Z,23.50
2022-09-30T22:15:23.708Z,22.90
2022-09-30T22:26:07.339Z,24.50
2022-09-30T22:28:53.189Z,22.60
2022-09-30T22:32:12.427Z,22.00
2022-09-30T22:35:48.087Z,15.80
2022-09-30T22:48:52.467Z,18.30
2022-09-30T22:51:22.408Z,18.60
2022-09-30T22:53:55.316Z,17.60
2022-09-30T22:56:29.564Z,20.90
2022-09-30T22:59:00.400Z,25.40
2022-09-30T23:01:32.271Z,24.10
2022-09-30T23:04:10.375Z,25.30
2022-09-30T23:06:39.485Z,24.20
2022-09-30T23:09:12.056Z,25.10
2022-09-30T23:11:42.801Z,21.50
2022-09-30T23:14:13.078Z,21.90
2022-09-30T23:16:42.346Z,23.20
2022-09-30T23:19:13.843Z,23.90
2022-09-30T23:21:43.248Z,21.80
2022-09-30T23:24:12.659Z,23.80
2022-09-30T23:26:47.302Z,22.90
2022-09-30T23:29:17.966Z,23.30
2022-09-30T23:31:51.526Z,20.30
2022-09-30T23:34:23.487Z,22.40
2022-09-30T23:36:54.527Z,24.80
2022-09-30T23:39:23.055Z,26.40
2022-09-30T23:41:55.344Z,23.80
2022-09-30T23:44:28.204Z,27.00
2022-09-30T23:47:17.217Z,24.00
2022-09-30T23:49:46.046Z,23.10
2022-09-30T23:52:15.240Z,23.20
2022-09-30T23:54:45.565Z,23.20
2022-09-30T23:57:15.146Z,21.60
2022-09-30T23:59:47.313Z,21.90
